Time;durP1;ratioP1;P1;durP2;ratioP2;P2;SDS_P1;SDS_P2;PMS_P1;PMS_P2;Temp;Humidity;BMP_temperature;BMP_pressure;BME280_temperature;BME280_humidity;BME280_pressure;Samples;Min_cycle;Max_cycle;Signal;HPM_P1;HPM_P2
2022/10/08 00:01:18;;;;;;;;;26.67;24.33;;;;;10.99;79.61;101625.56;5035896;28;45306;-72
2022/10/08 00:03:46;;;;;;;;;25.33;23.33;;;;;10.97;79.78;101624.84;5035808;28;45245;-72
2022/10/08 00:06:13;;;;;;;;;23.00;23.00;;;;;11.02;79.26;101635.88;5035787;28;45437;-72
2022/10/08 00:08:41;;;;;;;;;25.33;25.33;;;;;10.91;79.55;101626.31;5047811;28;47294;-72
2022/10/08 00:11:10;;;;;;;;;24.67;24.00;;;;;10.85;79.35;101630.44;5031334;28;46219;-72
2022/10/08 00:13:41;;;;;;;;;26.00;26.00;;;;;10.80;79.68;101631.84;5035640;28;45386;-72
2022/10/08 00:16:11;;;;;;;;;24.00;22.00;;;;;10.89;79.81;101643.44;5034381;28;45336;-72
2022/10/08 00:18:38;;;;;;;;;28.33;26.00;;;;;10.82;80.33;101644.03;5035718;28;45370;-72
2022/10/08 00:21:13;;;;;;;;;26.00;24.00;;;;;10.90;80.23;101643.28;5035281;28;46211;-72
2022/10/08 00:23:38;;;;;;;;;23.00;21.67;;;;;10.83;79.66;101637.72;5035547;28;45328;-72
2022/10/08 00:26:05;;;;;;;;;25.33;24.00;;;;;10.79;79.55;101625.72;5035700;28;45347;-72
2022/10/08 00:28:32;;;;;;;;;26.33;25.67;;;;;10.87;79.64;101638.25;5030075;28;45466;-72
2022/10/08 00:31:05;;;;;;;;;23.33;21.00;;;;;10.83;80.13;101632.41;5026610;28;47411;-72
2022/10/08 00:33:30;;;;;;;;;22.00;20.67;;;;;10.77;79.72;101632.19;5033914;28;45379;-72
2022/10/08 00:36:00;;;;;;;;;22.67;22.67;;;;;10.71;79.58;101631.81;5047511;28;45311;-72
2022/10/08 00:38:25;;;;;;;;;23.33;22.67;;;;;10.73;79.85;101637.81;5031922;28;45401;-72
2022/10/08 00:40:50;;;;;;;;;23.33;23.00;;;;;10.70;80.29;101638.13;5035272;28;46002;-72
2022/10/08 00:43:16;;;;;;;;;22.00;22.00;;;;;10.72;80.11;101633.47;5035184;28;45397;-72
2022/10/08 00:45:46;;;;;;;;;21.67;21.33;;;;;10.73;80.23;101636.97;5035440;28;45820;-71
2022/10/08 00:48:19;;;;;;;;;16.67;16.33;;;;;10.67;80.25;101630.44;5035229;28;45301;-72
2022/10/08 00:50:46;;;;;;;;;25.67;24.67;;;;;10.70;80.67;101653.22;5033470;28;47489;-72
2022/10/08 00:53:12;;;;;;;;;22.67;22.67;;;;;10.65;80.57;101642.22;5033832;27;45371;-72
2022/10/08 00:55:40;;;;;;;;;19.33;19.33;;;;;10.67;80.51;101651.72;5033575;28;45312;-72
2022/10/08 00:58:15;;;;;;;;;24.67;24.33;;;;;10.66;80.43;101652.72;5035019;28;45460;-73
2022/10/08 01:00:40;;;;;;;;;26.67;22.67;;;;;10.60;80.51;101638.19;5034786;28;47520;-72
2022/10/08 01:03:05;;;;;;;;;26.67;24.67;;;;;10.57;80.54;101633.16;5036980;28;45306;-72
2022/10/08 01:06:00;;;;;;;;;25.67;23.00;;;;;10.66;80.39;101649.22;5038127;28;45254;-72
2022/10/08 01:08:43;;;;;;;;;26.67;25.00;;;;;10.60;80.43;101643.50;5034647;28;45351;-72
2022/10/08 01:11:26;;;;;;;;;22.00;19.67;;;;;10.63;80.46;101647.69;5038098;28;46622;-72
2022/10/08 01:14:04;;;;;;;;;23.67;23.67;;;;;10.56;80.48;101638.63;5038071;28;45320;-72
2022/10/08 01:16:49;;;;;;;;;28.33;25.33;;;;;10.59;80.65;101644.50;5037886;28;45420;-74
2022/10/08 01:19:38;;;;;;;;;27.33;27.33;;;;;10.57;80.74;101648.31;5037968;28;45347;-74
2022/10/08 01:22:35;;;;;;;;;25.00;25.00;;;;;10.54;80.86;101646.75;5031712;28;45420;-72
2022/10/08 01:25:33;;;;;;;;;28.33;27.00;;;;;10.53;81.18;101638.97;5033068;28;45921;-72
2022/10/08 01:28:29;;;;;;;;;25.67;25.67;;;;;10.50;81.01;101644.59;5030915;28;45367;-74
2022/10/08 01:31:09;;;;;;;;;23.00;21.33;;;;;10.49;80.89;101643.75;5033267;28;46515;-72
2022/10/08 01:33:49;;;;;;;;;21.33;21.00;;;;;10.43;81.08;101633.69;5036309;28;46363;-74
2022/10/08 01:36:18;;;;;;;;;25.00;23.33;;;;;10.46;81.22;101644.03;5037451;28;45422;-72
2022/10/08 01:38:59;;;;;;;;;27.67;25.33;;;;;10.46;80.79;101634.25;5033298;28;45485;-72
2022/10/08 01:41:28;;;;;;;;;22.33;22.33;;;;;10.41;80.71;101627.66;5030945;28;45364;-72
2022/10/08 01:44:08;;;;;;;;;21.00;21.00;;;;;10.43;81.08;101639.84;5037334;28;45898;-72
2022/10/08 01:46:37;;;;;;;;;26.00;23.67;;;;;10.35;80.86;101629.13;5037675;28;45322;-72
2022/10/08 01:49:09;;;;;;;;;26.00;25.00;;;;;10.38;81.08;101638.63;5037487;28;45367;-72
2022/10/08 01:51:50;;;;;;;;;24.33;22.00;;;;;10.33;81.08;101633.75;5049276;28;46376;-73
2022/10/08 01:54:16;;;;;;;;;20.00;20.00;;;;;10.11;81.35;101638.50;5022920;28;46326;-72
2022/10/08 01:56:44;;;;;;;;;23.33;23.33;;;;;10.06;81.85;101638.13;5037482;28;45421;-72
2022/10/08 01:59:21;;;;;;;;;23.33;22.33;;;;;10.03;81.82;101639.22;5037168;28;45498;-72
2022/10/08 02:01:59;;;;;;;;;25.00;25.00;;;;;10.02;81.98;101632.25;5037328;28;45573;-72
2022/10/08 02:04:33;;;;;;;;;26.33;22.67;;;;;9.95;82.61;101626.72;5037354;28;47223;-72
2022/10/08 02:07:21;;;;;;;;;24.00;22.67;;;;;9.98;82.64;101639.72;5037018;28;45311;-72
2022/10/08 02:09:50;;;;;;;;;20.67;20.67;;;;;10.19;81.84;101632.44;5037300;28;45541;-74
2022/10/08 02:12:17;;;;;;;;;27.00;24.00;;;;;10.21;81.58;101636.63;5035736;28;47233;-72
2022/10/08 02:14:47;;;;;;;;;22.00;21.67;;;;;10.20;81.79;101636.75;5052317;28;48212;-72
2022/10/08 02:17:25;;;;;;;;;25.00;22.67;;;;;10.23;81.06;101639.13;5037387;28;45354;-74
2022/10/08 02:19:53;;;;;;;;;24.50;24.00;;;;;10.25;81.03;101639.81;5037258;28;45311;-74
2022/10/08 02:22:23;;;;;;;;;24.67;23.67;;;;;10.23;80.97;101639.97;5037087;28;45298;-72
2022/10/08 02:24:56;;;;;;;;;24.33;24.33;;;;;10.15;81.10;101625.75;5037020;28;46425;-72
2022/10/08 02:27:33;;;;;;;;;23.67;23.67;;;;;10.15;81.37;101618.59;5037162;28;45517;-72
2022/10/08 02:30:11;;;;;;;;;20.00;20.00;;;;;10.15;82.27;101617.78;5037035;28;45336;-72
2022/10/08 02:33:03;;;;;;;;;23.67;22.67;;;;;10.25;82.06;101637.16;5037086;28;45545;-73
2022/10/08 02:35:38;;;;;;;;;18.00;15.67;;;;;10.28;82.20;101634.22;5032245;28;45450;-72
2022/10/08 02:38:16;;;;;;;;;22.00;20.00;;;;;10.30;82.09;101639.38;5036627;28;45546;-72
2022/10/08 02:40:47;;;;;;;;;25.00;21.00;;;;;10.36;82.17;101641.44;5024613;28;45387;-72
2022/10/08 02:43:18;;;;;;;;;26.00;23.00;;;;;10.38;82.23;101628.81;5036725;28;45348;-72
2022/10/08 02:45:56;;;;;;;;;24.67;21.67;;;;;10.39;82.38;101634.97;5036884;28;45323;-72
2022/10/08 02:48:33;;;;;;;;;16.00;15.67;;;;;10.50;82.62;101636.63;5036739;28;45398;-74
2022/10/08 02:51:04;;;;;;;;;21.67;20.67;;;;;10.54;82.77;101630.81;5036813;28;45305;-74
2022/10/08 02:53:31;;;;;;;;;18.00;17.67;;;;;10.54;82.71;101624.69;5036805;28;45332;-72
2022/10/08 02:55:59;;;;;;;;;25.33;23.67;;;;;10.66;82.56;101630.59;5036788;28;46014;-75
2022/10/08 02:58:25;;;;;;;;;26.00;23.67;;;;;10.64;82.53;101624.59;5036414;28;45373;-72
2022/10/08 03:00:58;;;;;;;;;30.00;26.00;;;;;10.63;82.32;101623.78;5036715;28;45413;-72
2022/10/08 03:03:33;;;;;;;;;25.33;23.67;;;;;10.64;82.43;101625.44;5036731;28;45414;-72
2022/10/08 03:06:02;;;;;;;;;26.67;24.67;;;;;10.57;82.22;101611.91;5032836;28;48306;-72
2022/10/08 03:08:29;;;;;;;;;19.00;17.00;;;;;10.61;82.20;101620.41;5036329;28;45570;-72
2022/10/08 03:10:55;;;;;;;;;28.33;27.00;;;;;10.60;82.47;101621.41;5036862;28;45248;-72
2022/10/08 03:13:22;;;;;;;;;26.67;26.67;;;;;10.63;82.46;101626.44;5036348;28;46004;-72
2022/10/08 03:15:51;;;;;;;;;28.00;24.00;;;;;10.64;82.49;101628.09;5048480;28;47688;-72
2022/10/08 03:18:18;;;;;;;;;24.67;23.33;;;;;10.63;82.50;101631.75;5035176;28;45383;-72
2022/10/08 03:20:46;;;;;;;;;24.33;24.33;;;;;10.58;82.46;101623.38;5036596;28;45397;-72
2022/10/08 03:23:15;;;;;;;;;24.33;23.67;;;;;10.60;82.35;101627.56;5050632;28;45488;-72
2022/10/08 03:25:41;;;;;;;;;24.67;24.33;;;;;10.59;82.28;101627.69;5036477;28;45408;-72
2022/10/08 03:28:06;;;;;;;;;27.33;27.33;;;;;10.58;82.47;101632.19;5036103;28;45451;-72
2022/10/08 03:30:31;;;;;;;;;27.00;26.00;;;;;10.59;82.66;101641.00;5036663;28;46742;-72
2022/10/08 03:32:57;;;;;;;;;27.67;27.67;;;;;10.60;82.70;101642.69;5036367;28;45494;-72
2022/10/08 03:35:22;;;;;;;;;26.33;24.00;;;;;10.58;82.16;101640.19;5035942;28;45360;-72
2022/10/08 03:37:47;;;;;;;;;26.67;25.67;;;;;10.57;82.75;101645.66;5036535;28;45402;-72
2022/10/08 03:40:13;;;;;;;;;26.00;24.00;;;;;10.51;82.66;101639.13;5036320;28;45567;-72
2022/10/08 03:42:38;;;;;;;;;30.00;26.67;;;;;10.53;82.46;101638.97;5036175;28;46017;-72
2022/10/08 03:45:04;;;;;;;;;18.67;18.00;;;;;10.55;82.52;101636.97;5035867;28;45423;-72
2022/10/08 03:47:30;;;;;;;;;27.33;25.33;;;;;10.62;82.81;101650.50;5036285;28;45227;-72
2022/10/08 03:49:55;;;;;;;;;29.00;27.00;;;;;10.66;82.89;101652.72;5036254;28;45413;-72
2022/10/08 03:52:20;;;;;;;;;26.33;25.33;;;;;10.71;83.17;101657.56;5034633;28;47238;-72
2022/10/08 03:54:45;;;;;;;;;25.67;25.67;;;;;10.65;83.14;101651.03;5036019;28;45323;-72
2022/10/08 03:57:11;;;;;;;;;27.33;26.33;;;;;10.70;82.77;101661.22;5036021;28;45272;-72
2022/10/08 03:59:36;;;;;;;;;26.00;26.00;;;;;10.66;82.90;101658.03;5036279;28;45536;-72
2022/10/08 04:02:01;;;;;;;;;27.33;27.33;;;;;10.68;82.96;101658.69;5035997;28;45352;-72
2022/10/08 04:04:27;;;;;;;;;25.00;22.67;;;;;10.68;82.77;101655.19;5034576;28;46952;-72
2022/10/08 04:06:52;;;;;;;;;26.33;25.33;;;;;10.65;82.58;101661.66;5034169;28;45313;-72
2022/10/08 04:09:17;;;;;;;;;23.67;22.33;;;;;10.62;82.89;101664.63;5035773;28;45328;-72
2022/10/08 04:11:43;;;;;;;;;26.33;24.00;;;;;10.65;82.76;101674.94;5036068;28;45313;-72
2022/10/08 04:14:08;;;;;;;;;26.33;24.00;;;;;10.66;82.76;101671.31;5034181;28;46974;-72
2022/10/08 04:16:33;;;;;;;;;21.00;19.33;;;;;10.62;82.91;101666.47;5034452;28;46063;-72
2022/10/08 04:18:59;;;;;;;;;23.00;19.67;;;;;10.64;82.76;101670.63;5035902;28;45467;-72
2022/10/08 04:21:24;;;;;;;;;16.67;16.67;;;;;10.59;82.87;101663.09;5034110;28;46931;-72
2022/10/08 04:23:50;;;;;;;;;16.00;16.00;;;;;10.66;83.05;101679.31;5035504;28;45359;-72
2022/10/08 04:26:16;;;;;;;;;20.33;20.00;;;;;10.66;83.07;101686.44;5034005;28;45682;-72
2022/10/08 04:28:43;;;;;;;;;23.67;21.67;;;;;10.66;83.25;101681.97;5035617;28;45647;-72
2022/10/08 04:31:15;;;;;;;;;20.67;20.00;;;;;10.69;83.21;101680.81;5035427;28;45326;-72
2022/10/08 04:33:41;;;;;;;;;22.67;21.00;;;;;10.69;83.24;101684.28;5035245;28;45418;-72
2022/10/08 04:36:13;;;;;;;;;20.33;17.33;;;;;10.67;83.43;101698.72;5038385;28;45251;-72
2022/10/08 04:38:38;;;;;;;;;16.67;16.67;;;;;10.66;83.81;101700.56;5038666;28;45281;-72
2022/10/08 04:41:12;;;;;;;;;16.67;13.33;;;;;10.69;84.33;101707.41;5038349;28;45311;-72
2022/10/08 04:43:39;;;;;;;;;17.00;15.00;;;;;10.72;84.26;101707.91;5038230;28;45927;-72
2022/10/08 04:46:07;;;;;;;;;14.67;13.67;;;;;10.77;84.27;101709.31;5050538;28;45374;-72
2022/10/08 04:48:32;;;;;;;;;20.67;17.00;;;;;10.83;84.29;101714.84;5034215;28;45621;-72
2022/10/08 04:50:59;;;;;;;;;20.67;17.33;;;;;10.88;84.74;101719.72;5038145;28;45553;-72
2022/10/08 04:53:25;;;;;;;;;17.00;17.00;;;;;10.92;84.68;101712.28;5038084;28;46421;-72
2022/10/08 04:55:52;;;;;;;;;17.33;17.33;;;;;10.99;84.58;101722.13;5038235;28;45489;-71
2022/10/08 04:58:17;;;;;;;;;16.67;16.67;;;;;11.04;84.59;101727.00;5038069;28;45415;-72
2022/10/08 05:00:42;;;;;;;;;15.67;15.33;;;;;11.05;84.56;101711.88;5038069;28;45247;-72
2022/10/08 05:03:08;;;;;;;;;16.00;15.67;;;;;11.14;84.36;101715.44;5050417;28;48040;-72
2022/10/08 05:05:38;;;;;;;;;13.00;12.00;;;;;11.16;84.84;101724.94;5033778;28;45168;-72
2022/10/08 05:08:03;;;;;;;;;19.33;16.33;;;;;11.17;84.45;101723.13;5050219;28;45480;-72
2022/10/08 05:10:28;;;;;;;;;15.00;15.00;;;;;11.18;84.32;101722.97;5028618;28;45356;-72
2022/10/08 05:12:54;;;;;;;;;18.00;17.00;;;;;11.16;84.19;101718.78;5036738;28;48088;-72
2022/10/08 05:15:19;;;;;;;;;15.67;14.33;;;;;11.18;83.67;101722.97;5038118;28;45424;-72
2022/10/08 05:17:44;;;;;;;;;15.67;15.67;;;;;11.10;84.05;101713.06;5038205;28;45440;-72
2022/10/08 05:20:09;;;;;;;;;15.00;12.67;;;;;11.11;83.94;101724.56;5049864;28;48067;-72
2022/10/08 05:22:35;;;;;;;;;13.67;13.67;;;;;11.02;83.82;101713.03;5030255;28;45423;-72
2022/10/08 05:25:00;;;;;;;;;12.00;12.00;;;;;11.05;84.30;101715.34;5038037;28;45490;-73
2022/10/08 05:27:25;;;;;;;;;11.67;11.67;;;;;10.99;84.52;101706.16;5038294;28;45302;-72
2022/10/08 05:29:51;;;;;;;;;9.00;9.00;;;;;11.01;84.64;101707.84;5037741;28;45375;-73
2022/10/08 05:32:16;;;;;;;;;8.00;8.00;;;;;11.01;85.02;101715.84;5037931;28;46752;-72
2022/10/08 05:34:41;;;;;;;;;14.00;14.00;;;;;11.04;85.29;101734.97;5037912;28;45337;-72
2022/10/08 05:37:07;;;;;;;;;17.00;16.00;;;;;10.99;85.11;101724.78;5036554;28;45412;-76
2022/10/08 05:39:32;;;;;;;;;14.33;13.33;;;;;11.04;84.74;101727.00;5033435;28;46303;-75
2022/10/08 05:41:57;;;;;;;;;16.67;16.00;;;;;11.06;84.72;101733.00;5035443;28;46304;-73
2022/10/08 05:44:22;;;;;;;;;17.00;17.00;;;;;11.04;84.48;101739.47;5037750;28;45344;-73
2022/10/08 05:46:48;;;;;;;;;16.33;13.67;;;;;10.98;84.41;101746.22;5037279;28;45487;-73
2022/10/08 05:49:18;;;;;;;;;18.00;18.00;;;;;10.98;84.47;101747.06;5049682;28;46429;-73
2022/10/08 05:51:44;;;;;;;;;20.67;16.00;;;;;10.93;84.29;101733.38;5031536;28;46147;-73
2022/10/08 05:54:09;;;;;;;;;15.33;15.33;;;;;10.96;84.35;101740.22;5037621;28;45285;-72
2022/10/08 05:56:35;;;;;;;;;16.67;16.67;;;;;10.92;84.48;101731.72;5037753;28;46242;-72
2022/10/08 05:59:00;;;;;;;;;15.67;15.67;;;;;10.86;84.45;101738.47;5049512;28;46742;-72
2022/10/08 06:01:31;;;;;;;;;14.00;14.00;;;;;10.88;84.33;101750.78;5027456;28;45348;-72
2022/10/08 06:04:01;;;;;;;;;15.00;13.00;;;;;10.86;84.37;101757.09;5037379;28;45441;-72
2022/10/08 06:06:27;;;;;;;;;18.00;16.00;;;;;10.85;84.46;101771.38;5037109;28;46149;-72
2022/10/08 06:08:58;;;;;;;;;15.67;14.33;;;;;10.85;84.67;101770.53;5037326;28;45393;-73
2022/10/08 06:11:25;;;;;;;;;18.67;16.33;;;;;10.84;84.87;101764.38;5037180;28;46367;-73
2022/10/08 06:13:54;;;;;;;;;15.00;15.00;;;;;10.84;84.87;101766.22;5037269;28;45443;-74
2022/10/08 06:16:20;;;;;;;;;18.33;18.33;;;;;10.84;84.82;101766.22;5037481;28;45462;-72
2022/10/08 06:18:46;;;;;;;;;19.33;18.00;;;;;10.77;85.01;101767.81;5049415;28;47264;-72
2022/10/08 06:21:14;;;;;;;;;15.33;15.33;;;;;10.78;84.61;101770.31;5031630;28;46456;-74
2022/10/08 06:23:48;;;;;;;;;18.67;15.00;;;;;10.75;84.93;101772.44;5037424;28;45251;-74
2022/10/08 06:26:14;;;;;;;;;16.33;16.00;;;;;10.80;84.68;101788.75;5035815;28;45321;-75
2022/10/08 06:28:40;;;;;;;;;17.67;17.67;;;;;10.76;85.08;101777.59;5035599;28;47406;-75
2022/10/08 06:31:06;;;;;;;;;20.33;19.33;;;;;10.76;84.99;101787.38;5036921;28;46006;-75
2022/10/08 06:33:32;;;;;;;;;17.00;16.00;;;;;10.81;85.30;101787.78;5037176;28;45497;-75
2022/10/08 06:36:03;;;;;;;;;18.00;17.67;;;;;10.85;85.11;101797.13;5037171;28;45389;-75
2022/10/08 06:38:28;;;;;;;;;19.00;19.00;;;;;10.85;85.29;101789.16;5036905;28;45463;-75
2022/10/08 06:40:56;;;;;;;;;21.67;19.33;;;;;10.84;85.19;101798.94;5036820;28;45880;-73
2022/10/08 06:43:22;;;;;;;;;17.67;17.67;;;;;10.81;85.29;101806.41;5031720;28;45557;-76
2022/10/08 06:45:47;;;;;;;;;18.33;16.33;;;;;10.85;85.80;101808.63;5032806;28;45586;-75
2022/10/08 06:48:13;;;;;;;;;19.00;18.00;;;;;10.84;85.69;101809.59;5033143;28;45946;-76
2022/10/08 06:50:39;;;;;;;;;19.00;19.00;;;;;10.87;85.57;101816.44;5034329;28;45306;-75
2022/10/08 06:53:06;;;;;;;;;19.33;16.00;;;;;10.87;85.55;101811.13;5029685;28;45938;-77
2022/10/08 06:55:33;;;;;;;;;16.33;13.33;;;;;10.81;85.85;101796.59;5024485;28;45444;-77
2022/10/08 06:57:59;;;;;;;;;14.00;14.00;;;;;10.86;85.69;101814.75;5034896;28;45436;-79
2022/10/08 07:00:25;;;;;;;;;15.67;14.67;;;;;10.87;85.86;101811.13;5036459;28;45428;-80
2022/10/08 07:02:51;;;;;;;;;20.67;18.67;;;;;10.93;85.96;101826.47;5035928;28;45350;-81
2022/10/08 07:05:16;;;;;;;;;17.67;15.00;;;;;10.92;85.96;101814.16;5036008;28;45428;-80
2022/10/08 07:07:42;;;;;;;;;13.33;13.33;;;;;10.96;85.91;101820.03;5035918;28;45334;-80
2022/10/08 07:10:08;;;;;;;;;13.00;13.00;;;;;11.05;86.31;101837.72;5036044;28;45361;-80
2022/10/08 07:12:33;;;;;;;;;11.00;11.00;;;;;11.07;86.52;101832.25;5035929;28;45369;-79
2022/10/08 07:14:59;;;;;;;;;13.00;13.00;;;;;11.16;86.66;101839.34;5034252;28;45968;-79
2022/10/08 07:17:27;;;;;;;;;16.33;14.67;;;;;11.16;86.95;101839.34;5028971;28;45523;-79
2022/10/08 07:19:53;;;;;;;;;17.67;14.00;;;;;11.24;87.40;101844.75;5034030;28;46259;-79
2022/10/08 07:22:18;;;;;;;;;16.00;16.00;;;;;11.33;87.35;101848.34;5035972;28;45450;-79
2022/10/08 07:24:44;;;;;;;;;11.00;11.00;;;;;11.38;87.87;101853.19;5036197;28;45340;-75
2022/10/08 07:27:09;;;;;;;;;12.00;12.00;;;;;11.41;87.77;101854.72;5034141;28;45342;-78
2022/10/08 07:29:35;;;;;;;;;13.67;13.67;;;;;11.46;87.97;101863.91;5035832;28;45391;-76
2022/10/08 07:32:00;;;;;;;;;15.00;15.00;;;;;11.57;87.82;101870.00;5036366;28;45264;-75
2022/10/08 07:34:26;;;;;;;;;18.00;18.00;;;;;11.64;87.80;101876.38;5035035;28;45489;-76
2022/10/08 07:36:51;;;;;;;;;8.00;7.67;;;;;11.69;87.80;101876.75;5029644;28;45326;-76
2022/10/08 07:39:18;;;;;;;;;15.33;15.33;;;;;11.79;88.07;101882.00;5014329;28;48095;-78
2022/10/08 07:41:44;;;;;;;;;17.67;17.00;;;;;11.85;88.18;101883.19;5019520;28;47452;-77
2022/10/08 07:44:10;;;;;;;;;19.67;19.33;;;;;11.91;88.33;101879.09;5040570;28;45558;-77
2022/10/08 07:46:40;;;;;;;;;17.33;16.67;;;;;11.93;88.23;101872.63;5039305;28;46615;-76
2022/10/08 07:49:06;;;;;;;;;14.67;14.67;;;;;12.02;88.15;101884.16;5036901;28;47334;-77
2022/10/08 07:51:33;;;;;;;;;19.00;17.33;;;;;12.13;88.40;101896.44;5015434;28;45299;-76
2022/10/08 07:53:59;;;;;;;;;20.00;18.67;;;;;12.18;88.31;101891.47;5031586;28;45414;-76
2022/10/08 07:56:24;;;;;;;;;15.00;14.00;;;;;12.21;88.93;101893.00;5033831;28;45538;-77
2022/10/08 07:58:50;;;;;;;;;15.67;14.00;;;;;12.27;88.67;101896.84;5026999;28;45363;-77
2022/10/08 08:01:21;;;;;;;;;18.00;18.00;;;;;12.31;88.92;101896.38;5013554;28;45340;-77
2022/10/08 08:04:04;;;;;;;;;19.33;18.33;;;;;12.36;89.15;101890.56;5016344;28;45450;-78
2022/10/08 08:06:31;;;;;;;;;20.00;17.67;;;;;12.52;89.43;101910.31;5035464;28;46062;-78
2022/10/08 08:08:59;;;;;;;;;18.00;18.00;;;;;12.57;89.66;101905.34;5014569;28;45363;-76
2022/10/08 08:11:24;;;;;;;;;21.00;21.00;;;;;12.61;89.30;101917.38;5014108;28;45689;-75
2022/10/08 08:13:51;;;;;;;;;21.33;19.67;;;;;12.73;89.52;101925.94;5029606;28;45568;-77
2022/10/08 08:16:25;;;;;;;;;23.00;20.00;;;;;12.78;89.64;101920.13;5032991;28;45342;-77
2022/10/08 08:18:55;;;;;;;;;17.67;16.67;;;;;12.84;90.09;101916.81;5025342;28;45353;-75
2022/10/08 08:21:23;;;;;;;;;18.67;18.00;;;;;12.96;90.28;101925.38;5013753;28;45803;-78
2022/10/08 08:23:51;;;;;;;;;19.00;17.33;;;;;13.03;90.50;101926.41;5035152;28;45459;-75
2022/10/08 08:26:19;;;;;;;;;22.33;20.00;;;;;13.10;90.36;101926.56;5024113;27;45446;-78
2022/10/08 08:28:49;;;;;;;;;14.67;14.67;;;;;13.14;90.19;101927.91;5032660;27;45536;-75
2022/10/08 08:31:17;;;;;;;;;17.00;15.67;;;;;13.26;90.80;101947.16;5042849;27;45706;-75
2022/10/08 08:33:49;;;;;;;;;19.00;18.33;;;;;13.34;90.79;101949.84;5044121;28;45447;-76
2022/10/08 08:36:15;;;;;;;;;19.33;16.67;;;;;13.38;91.04;101942.34;5028994;27;45686;-75
2022/10/08 08:38:41;;;;;;;;;14.67;14.00;;;;;13.45;91.26;101942.50;5034208;28;46297;-76
2022/10/08 08:41:15;;;;;;;;;12.67;12.33;;;;;13.58;91.45;101953.59;5032906;28;45402;-78
2022/10/08 08:43:41;;;;;;;;;12.33;12.33;;;;;13.64;92.03;101954.75;5034755;28;45395;-79
2022/10/08 08:46:06;;;;;;;;;17.00;14.67;;;;;13.76;92.35;101960.63;5034338;28;45489;-81
2022/10/08 08:48:36;;;;;;;;;15.33;15.00;;;;;13.83;92.03;101952.78;5033081;27;47030;-79
2022/10/08 08:51:03;;;;;;;;;11.67;11.33;;;;;13.94;91.51;101959.63;5014066;28;45359;-79
2022/10/08 08:53:29;;;;;;;;;10.33;10.00;;;;;14.04;91.51;101972.84;5030422;28;45449;-79
2022/10/08 08:55:57;;;;;;;;;15.00;13.00;;;;;14.05;91.51;101953.09;5029692;28;47134;-79
2022/10/08 08:58:26;;;;;;;;;11.67;11.67;;;;;14.24;91.50;101979.50;5043509;28;47272;-80
2022/10/08 09:01:03;;;;;;;;;11.00;9.00;;;;;14.30;91.10;101971.81;5029591;28;45458;-78
2022/10/08 09:03:42;;;;;;;;;12.00;10.67;;;;;14.41;91.01;101974.13;5028993;28;45448;-74
2022/10/08 09:06:13;;;;;;;;;10.33;10.00;;;;;14.52;90.51;101976.44;5029077;28;46254;-74
2022/10/08 09:08:49;;;;;;;;;12.67;12.33;;;;;14.59;90.86;101983.78;5034324;28;45893;-74
2022/10/08 09:11:18;;;;;;;;;11.67;9.67;;;;;14.70;90.37;101971.91;5034674;28;45287;-74
2022/10/08 09:13:59;;;;;;;;;8.67;8.33;;;;;14.75;89.61;101970.38;5034822;28;45380;-74
2022/10/08 09:16:26;;;;;;;;;5.33;4.00;;;;;14.85;88.21;101982.75;5034562;28;45419;-76
2022/10/08 09:18:52;;;;;;;;;4.67;4.67;;;;;14.84;87.40;101983.75;5025091;28;45410;-77
2022/10/08 09:21:18;;;;;;;;;5.00;5.00;;;;;14.99;86.65;101981.19;5029820;27;45425;-75
2022/10/08 09:23:45;;;;;;;;;6.00;6.00;;;;;15.04;85.67;101986.03;5035247;28;45363;-78
2022/10/08 09:26:18;;;;;;;;;5.67;5.33;;;;;15.12;85.67;101981.47;5035003;28;46052;-78
2022/10/08 09:28:55;;;;;;;;;6.67;5.00;;;;;15.18;85.17;101981.78;5034891;28;48129;-78
2022/10/08 09:31:46;;;;;;;;;4.67;4.00;;;;;15.32;84.51;101993.63;5033333;28;45874;-76
2022/10/08 09:34:12;;;;;;;;;6.33;6.33;;;;;15.43;83.54;101993.22;5032073;28;45405;-79
2022/10/08 09:36:42;;;;;;;;;8.33;5.00;;;;;15.53;83.30;101988.47;5033993;28;45330;-78
2022/10/08 09:39:34;;;;;;;;;5.67;5.00;;;;;15.67;82.88;101993.22;5036662;28;45457;-78
2022/10/08 09:42:05;;;;;;;;;5.00;5.00;;;;;15.78;82.86;101995.53;5052154;28;45389;-78
2022/10/08 09:44:55;;;;;;;;;4.00;4.00;;;;;15.87;82.42;101998.97;5036815;28;45497;-79
2022/10/08 09:47:22;;;;;;;;;6.33;6.33;;;;;15.99;81.61;102000.25;5032549;28;45406;-78
2022/10/08 09:50:02;;;;;;;;;5.00;5.00;;;;;16.18;81.12;102005.28;5021139;27;47285;-78
2022/10/08 09:52:28;;;;;;;;;4.67;3.00;;;;;16.23;81.34;101986.81;5021275;28;45375;-76
2022/10/08 09:55:07;;;;;;;;;8.00;5.00;;;;;16.36;80.35;102000.44;5049733;28;45465;-76
2022/10/08 09:57:44;;;;;;;;;4.00;4.00;;;;;16.60;79.84;102003.03;5047358;28;47224;-76
2022/10/08 10:00:34;;;;;;;;;6.00;6.00;;;;;16.81;78.76;102006.84;5028254;28;45513;-77
2022/10/08 10:03:01;;;;;;;;;4.00;4.00;;;;;16.86;77.53;101999.94;5033342;28;45384;-75
2022/10/08 10:05:30;;;;;;;;;4.67;3.67;;;;;16.91;77.33;102002.88;5028684;28;45433;-75
2022/10/08 10:07:56;;;;;;;;;3.00;3.00;;;;;16.94;76.53;102008.91;5036993;28;45348;-75
2022/10/08 10:10:44;;;;;;;;;2.00;2.00;;;;;16.91;75.25;101999.34;5049594;28;47394;-75
2022/10/08 10:13:24;;;;;;;;;2.00;2.00;;;;;16.95;74.32;101992.59;5048004;28;45305;-77
2022/10/08 10:15:59;;;;;;;;;2.00;2.00;;;;;17.00;73.12;101997.41;5029018;28;45207;-79
2022/10/08 10:18:52;;;;;;;;;2.33;2.33;;;;;17.12;73.52;102000.50;5037441;28;45137;-76
2022/10/08 10:21:44;;;;;;;;;2.33;2.33;;;;;17.21;73.31;102002.03;5033792;28;47124;-76
2022/10/08 10:24:21;;;;;;;;;3.00;3.00;;;;;17.23;72.18;101999.16;5031659;28;45366;-77
2022/10/08 10:26:52;;;;;;;;;1.67;1.00;;;;;17.12;70.41;101997.81;5037275;28;45453;-76
2022/10/08 10:29:24;;;;;;;;;2.33;2.33;;;;;17.15;69.79;102006.31;5035742;28;45333;-77
2022/10/08 10:32:30;;;;;;;;;1.33;1.33;;;;;17.20;70.08;102003.06;5036764;28;45327;-75
2022/10/08 10:35:04;;;;;;;;;2.33;2.00;;;;;17.33;69.11;102002.38;5013192;28;45358;-76
2022/10/08 10:37:40;;;;;;;;;2.00;1.67;;;;;17.48;69.08;101993.47;5037248;28;45298;-77
2022/10/08 10:40:25;;;;;;;;;3.00;3.00;;;;;17.60;69.50;101999.97;5036847;28;46106;-76
2022/10/08 10:43:17;;;;;;;;;1.00;1.00;;;;;17.65;67.33;102004.78;5037044;28;46178;-78
2022/10/08 10:45:53;;;;;;;;;2.67;2.00;;;;;17.62;66.69;102006.00;5035664;28;45400;-78
2022/10/08 10:48:19;;;;;;;;;1.67;1.33;;;;;17.59;67.47;102001.00;5037032;28;45371;-77
2022/10/08 10:51:07;;;;;;;;;2.00;2.00;;;;;17.63;67.51;102006.84;5021672;28;46133;-78
2022/10/08 10:53:49;;;;;;;;;3.00;1.00;;;;;17.54;66.86;101990.03;5030070;28;45497;-78
2022/10/08 10:56:17;;;;;;;;;4.33;2.33;;;;;17.58;65.13;102007.41;5036887;28;45417;-76
2022/10/08 10:59:13;;;;;;;;;1.00;1.00;;;;;17.58;65.58;102001.22;5035537;28;45347;-78
2022/10/08 11:02:17;;;;;;;;;2.00;2.00;;;;;17.69;65.89;102002.56;5035501;28;46230;-76
2022/10/08 11:05:04;;;;;;;;;3.33;3.33;;;;;17.84;65.70;102002.50;5000782;28;48478;-75
2022/10/08 11:08:04;;;;;;;;;7.67;7.33;;;;;17.94;65.44;102007.56;5034608;28;45405;-77
2022/10/08 11:11:02;;;;;;;;;2.00;2.00;;;;;18.01;65.03;102014.66;5046409;27;45813;-76
2022/10/08 11:14:20;;;;;;;;;2.00;2.00;;;;;17.96;63.75;101997.44;5029314;28;45692;-76
2022/10/08 11:16:54;;;;;;;;;4.00;4.00;;;;;17.94;63.67;102011.09;5077211;28;46638;-74
2022/10/08 11:19:19;;;;;;;;;3.67;3.67;;;;;17.87;62.12;102010.19;5031320;28;45346;-75
2022/10/08 11:21:57;;;;;;;;;2.33;2.00;;;;;17.80;62.72;102010.13;5026323;28;45447;-76
2022/10/08 11:24:47;;;;;;;;;3.00;2.00;;;;;17.87;63.66;102005.63;5025651;28;47460;-77
2022/10/08 11:27:13;;;;;;;;;4.00;3.00;;;;;17.96;61.81;102006.31;5021244;28;47362;-76
2022/10/08 11:29:47;;;;;;;;;3.33;2.67;;;;;18.04;61.34;102008.06;5028588;28;45529;-74